sensor_id;sensor_type;location;lat;lon;timestamp;pressure;altitude;pressure_sealevel;temperature;humidity
76637;BME280;65532;52.124;5.480;2023-03-20T00:02:03;101921.59;;;7.60;66.08
76637;BME280;65532;52.124;5.480;2023-03-20T00:04:30;101922.63;;;7.59;66.30
76637;BME280;65532;52.124;5.480;2023-03-20T00:06:57;101913.84;;;7.57;67.51
76637;BME280;65532;52.124;5.480;2023-03-20T00:09:23;101919.25;;;7.57;67.39
76637;BME280;65532;52.124;5.480;2023-03-20T00:11:53;101924.63;;;7.57;66.56
76637;BME280;65532;52.124;5.480;2023-03-20T00:14:21;101925.66;;;7.56;66.82
76637;BME280;65532;52.124;5.480;2023-03-20T00:16:50;101922.13;;;7.55;67.50
76637;BME280;65532;52.124;5.480;2023-03-20T00:19:25;101934.94;;;7.53;67.80
76637;BME280;65532;52.124;5.480;2023-03-20T00:21:53;101934.13;;;7.53;69.58
76637;BME280;65532;52.124;5.480;2023-03-20T00:24:20;101933.28;;;7.52;69.96
76637;BME280;65532;52.124;5.480;2023-03-20T00:26:48;101928.72;;;7.53;70.61
76637;BME280;65532;52.124;5.480;2023-03-20T00:29:24;101917.09;;;7.52;69.88
76637;BME280;65532;52.124;5.480;2023-03-20T00:31:51;101918.97;;;7.51;70.30
76637;BME280;65532;52.124;5.480;2023-03-20T00:34:21;101920.63;;;7.53;69.96
76637;BME280;65532;52.124;5.480;2023-03-20T00:36:49;101915.25;;;7.53;70.23
76637;BME280;65532;52.124;5.480;2023-03-20T00:39:16;101922.13;;;7.55;70.19
76637;BME280;65532;52.124;5.480;2023-03-20T00:41:52;101906.78;;;7.56;70.76
76637;BME280;65532;52.124;5.480;2023-03-20T00:44:26;101899.72;;;7.55;70.20
76637;BME280;65532;52.124;5.480;2023-03-20T00:47:19;101895.56;;;7.52;68.87
76637;BME280;65532;52.124;5.480;2023-03-20T00:49:48;101914.41;;;7.52;68.63
76637;BME280;65532;52.124;5.480;2023-03-20T00:52:19;101925.38;;;7.50;67.92
76637;BME280;65532;52.124;5.480;2023-03-20T00:54:47;101933.66;;;7.49;67.73
76637;BME280;65532;52.124;5.480;2023-03-20T00:57:37;101934.47;;;7.49;66.66
76637;BME280;65532;52.124;5.480;2023-03-20T01:00:37;101945.44;;;7.48;67.36
76637;BME280;65532;52.124;5.480;2023-03-20T01:03:19;101959.75;;;7.48;67.10
76637;BME280;65532;52.124;5.480;2023-03-20T01:05:47;101970.53;;;7.48;66.37
76637;BME280;65532;52.124;5.480;2023-03-20T01:08:20;101975.94;;;7.48;66.08
76637;BME280;65532;52.124;5.480;2023-03-20T01:10:54;101981.31;;;7.48;65.62
76637;BME280;65532;52.124;5.480;2023-03-20T01:13:27;101970.53;;;7.48;65.94
76637;BME280;65532;52.124;5.480;2023-03-20T01:15:56;101976.75;;;7.49;66.34
76637;BME280;65532;52.124;5.480;2023-03-20T01:18:25;101954.38;;;7.48;66.93
76637;BME280;65532;52.124;5.480;2023-03-20T01:20:52;101951.50;;;7.50;67.24
76637;BME280;65532;52.124;5.480;2023-03-20T01:23:20;101953.34;;;7.49;67.39
76637;BME280;65532;52.124;5.480;2023-03-20T01:25:49;101956.88;;;7.50;67.27
76637;BME280;65532;52.124;5.480;2023-03-20T01:28:21;101964.13;;;7.49;67.48
76637;BME280;65532;52.124;5.480;2023-03-20T01:30:49;101965.97;;;7.49;68.63
76637;BME280;65532;52.124;5.480;2023-03-20T01:33:21;101958.09;;;7.47;69.31
76637;BME280;65532;52.124;5.480;2023-03-20T01:35:52;101952.50;;;7.49;69.88
76637;BME280;65532;52.124;5.480;2023-03-20T01:38:26;101958.09;;;7.47;70.36
76637;BME280;65532;52.124;5.480;2023-03-20T01:40:58;101967.19;;;7.46;71.29
76637;BME280;65532;52.124;5.480;2023-03-20T01:43:33;101965.53;;;7.45;72.86
76637;BME280;65532;52.124;5.480;2023-03-20T01:51:19;101956.09;;;7.41;78.52
76637;BME280;65532;52.124;5.480;2023-03-20T01:53:58;101953.78;;;7.38;79.94
76637;BME280;65532;52.124;5.480;2023-03-20T01:56:29;101948.41;;;7.38;81.11
76637;BME280;65532;52.124;5.480;2023-03-20T01:59:02;101946.91;;;7.36;81.93
76637;BME280;65532;52.124;5.480;2023-03-20T02:01:31;101945.41;;;7.33;82.49
76637;BME280;65532;52.124;5.480;2023-03-20T02:04:01;101935.00;;;7.30;83.03
76637;BME280;65532;52.124;5.480;2023-03-20T02:06:54;101927.47;;;7.26;84.01
76637;BME280;65532;52.124;5.480;2023-03-20T02:09:29;101934.44;;;7.20;84.62
76637;BME280;65532;52.124;5.480;2023-03-20T02:11:57;101942.22;;;7.15;84.55
76637;BME280;65532;52.124;5.480;2023-03-20T02:14:25;101938.22;;;7.11;84.36
76637;BME280;65532;52.124;5.480;2023-03-20T02:16:59;101938.22;;;7.11;84.54
76637;BME280;65532;52.124;5.480;2023-03-20T02:41:59;101915.53;;;7.05;84.62
76637;BME280;65532;52.124;5.480;2023-03-20T02:47:18;101927.31;;;7.04;84.50
76637;BME280;65532;52.124;5.480;2023-03-20T02:50:20;101928.16;;;7.05;84.76
76637;BME280;65532;52.124;5.480;2023-03-20T02:55:47;101930.19;;;7.03;84.57
76637;BME280;65532;52.124;5.480;2023-03-20T02:58:22;101918.41;;;7.04;84.60
76637;BME280;65532;52.124;5.480;2023-03-20T03:01:09;101904.94;;;7.04;84.58
76637;BME280;65532;52.124;5.480;2023-03-20T03:03:43;101904.94;;;7.04;84.77
76637;BME280;65532;52.124;5.480;2023-03-20T03:06:21;101895.38;;;7.01;84.77
76637;BME280;65532;52.124;5.480;2023-03-20T03:08:54;101882.09;;;7.00;84.95
76637;BME280;65532;52.124;5.480;2023-03-20T03:11:23;101863.63;;;6.97;85.03
76637;BME280;65532;52.124;5.480;2023-03-20T03:13:53;101856.91;;;6.93;85.27
76637;BME280;65532;52.124;5.480;2023-03-20T03:16:30;101866.19;;;6.90;84.68
76637;BME280;65532;52.124;5.480;2023-03-20T03:19:04;101871.13;;;6.86;83.87
76637;BME280;65532;52.124;5.480;2023-03-20T03:21:35;101877.88;;;6.82;83.45
76637;BME280;65532;52.124;5.480;2023-03-20T03:24:04;101867.50;;;6.79;83.45
76637;BME280;65532;52.124;5.480;2023-03-20T03:26:33;101876.91;;;6.75;83.54
76637;BME280;65532;52.124;5.480;2023-03-20T03:29:08;101878.97;;;6.73;83.80
76637;BME280;65532;52.124;5.480;2023-03-20T03:31:37;101879.31;;;6.70;84.49
76637;BME280;65532;52.124;5.480;2023-03-20T03:34:04;101883.03;;;6.69;84.87
76637;BME280;65532;52.124;5.480;2023-03-20T03:36:48;101873.66;;;6.65;84.89
76637;BME280;65532;52.124;5.480;2023-03-20T03:42:13;101869.16;;;6.57;85.08
76637;BME280;65532;52.124;5.480;2023-03-20T03:44:53;101859.59;;;6.55;85.07
76637;BME280;65532;52.124;5.480;2023-03-20T03:47:36;101869.03;;;6.51;85.01
76637;BME280;65532;52.124;5.480;2023-03-20T03:50:11;101854.25;;;6.47;85.04
76637;BME280;65532;52.124;5.480;2023-03-20T03:52:40;101859.34;;;6.42;84.92
76637;BME280;65532;52.124;5.480;2023-03-20T03:55:11;101854.69;;;6.36;84.56
76637;BME280;65532;52.124;5.480;2023-03-20T03:57:59;101860.75;;;6.29;84.25
76637;BME280;65532;52.124;5.480;2023-03-20T04:00:27;101846.84;;;6.26;83.86
76637;BME280;65532;52.124;5.480;2023-03-20T04:02:56;101850.72;;;6.23;83.48
76637;BME280;65532;52.124;5.480;2023-03-20T04:05:26;101847.38;;;6.21;82.81
76637;BME280;65532;52.124;5.480;2023-03-20T04:07:58;101847.56;;;6.20;82.61
76637;BME280;65532;52.124;5.480;2023-03-20T04:10:26;101846.91;;;6.18;82.50
76637;BME280;65532;52.124;5.480;2023-03-20T04:12:52;101841.03;;;6.14;82.08
76637;BME280;65532;52.124;5.480;2023-03-20T04:15:19;101841.03;;;6.14;81.56
76637;BME280;65532;52.124;5.480;2023-03-20T04:17:46;101848.44;;;6.12;81.63
76637;BME280;65532;52.124;5.480;2023-03-20T04:20:15;101842.22;;;6.12;81.24
76637;BME280;65532;52.124;5.480;2023-03-20T04:22:41;101843.06;;;6.12;81.06
76637;BME280;65532;52.124;5.480;2023-03-20T04:25:22;101841.38;;;6.11;81.05
76637;BME280;65532;52.124;5.480;2023-03-20T04:27:52;101839.72;;;6.10;81.00
76637;BME280;65532;52.124;5.480;2023-03-20T04:30:41;101838.88;;;6.10;80.72
76637;BME280;65532;52.124;5.480;2023-03-20T04:33:15;101828.13;;;6.10;80.61
76637;BME280;65532;52.124;5.480;2023-03-20T04:35:49;101829.97;;;6.09;80.69
76637;BME280;65532;52.124;5.480;2023-03-20T04:38:18;101829.97;;;6.09;80.76
76637;BME280;65532;52.124;5.480;2023-03-20T04:40:45;101839.53;;;6.12;80.59
76637;BME280;65532;52.124;5.480;2023-03-20T04:43:13;101836.66;;;6.13;80.80
76637;BME280;65532;52.124;5.480;2023-03-20T04:45:40;101841.38;;;6.11;80.53
76637;BME280;65532;52.124;5.480;2023-03-20T04:48:08;101844.72;;;6.13;80.54
76637;BME280;65532;52.124;5.480;2023-03-20T04:50:35;101840.56;;;6.11;80.68
76637;BME280;65532;52.124;5.480;2023-03-20T04:53:02;101845.75;;;6.12;80.52
76637;BME280;65532;52.124;5.480;2023-03-20T04:55:28;101852.97;;;6.12;80.49
76637;BME280;65532;52.124;5.480;2023-03-20T04:57:55;101834.34;;;6.10;80.56
76637;BME280;65532;52.124;5.480;2023-03-20T05:00:22;101844.91;;;6.12;80.37
76637;BME280;65532;52.124;5.480;2023-03-20T05:02:49;101836.84;;;6.12;80.26
76637;BME280;65532;52.124;5.480;2023-03-20T05:05:16;101836.00;;;6.11;80.63
76637;BME280;65532;52.124;5.480;2023-03-20T05:07:42;101833.31;;;6.11;79.98
76637;BME280;65532;52.124;5.480;2023-03-20T05:10:15;101835.19;;;6.11;80.08
76637;BME280;65532;52.124;5.480;2023-03-20T05:12:49;101826.28;;;6.10;80.17
76637;BME280;65532;52.124;5.480;2023-03-20T05:15:26;101827.09;;;6.11;80.07
76637;BME280;65532;52.124;5.480;2023-03-20T05:18:11;101818.22;;;6.10;81.39
76637;BME280;65532;52.124;5.480;2023-03-20T05:21:03;101827.94;;;6.11;80.74
76637;BME280;65532;52.124;5.480;2023-03-20T05:23:50;101828.13;;;6.10;80.40
76637;BME280;65532;52.124;5.480;2023-03-20T05:26:28;101832.66;;;6.09;80.25
76637;BME280;65532;52.124;5.480;2023-03-20T05:29:15;101829.97;;;6.09;79.93
76637;BME280;65532;52.124;5.480;2023-03-20T05:31:47;101831.66;;;6.10;79.56
76637;BME280;65532;52.124;5.480;2023-03-20T05:34:29;101835.19;;;6.11;79.89
76637;BME280;65532;52.124;5.480;2023-03-20T05:37:05;101842.41;;;6.10;80.14
76637;BME280;65532;52.124;5.480;2023-03-20T05:39:53;101831.66;;;6.10;80.91
76637;BME280;65532;52.124;5.480;2023-03-20T05:42:38;101829.97;;;6.09;80.62
76637;BME280;65532;52.124;5.480;2023-03-20T05:45:05;101829.97;;;6.09;80.36
76637;BME280;65532;52.124;5.480;2023-03-20T05:48:07;101833.69;;;6.08;80.26
76637;BME280;65532;52.124;5.480;2023-03-20T05:50:40;101839.06;;;6.08;80.14
76637;BME280;65532;52.124;5.480;2023-03-20T05:53:29;101843.41;;;6.09;80.20
76637;BME280;65532;52.124;5.480;2023-03-20T05:56:14;101853.81;;;6.12;80.13
76637;BME280;65532;52.124;5.480;2023-03-20T05:58:50;101854.66;;;6.13;80.10
76637;BME280;65532;52.124;5.480;2023-03-20T06:01:31;101860.88;;;6.13;80.10
76637;BME280;65532;52.124;5.480;2023-03-20T06:04:05;101854.47;;;6.14;80.55
76637;BME280;65532;52.124;5.480;2023-03-20T06:06:49;101855.16;;;6.16;80.58
76637;BME280;65532;52.124;5.480;2023-03-20T06:09:16;101857.50;;;6.19;80.83
76637;BME280;65532;52.124;5.480;2023-03-20T06:11:42;101856.47;;;6.20;81.10
76637;BME280;65532;52.124;5.480;2023-03-20T06:14:09;101848.22;;;6.22;80.90
76637;BME280;65532;52.124;5.480;2023-03-20T06:16:40;101845.34;;;6.23;80.95
76637;BME280;65532;52.124;5.480;2023-03-20T06:19:08;101837.09;;;6.25;81.06
76637;BME280;65532;52.124;5.480;2023-03-20T06:21:35;101839.63;;;6.26;82.12
76637;BME280;65532;52.124;5.480;2023-03-20T06:24:02;101845.81;;;6.27;82.78
76637;BME280;65532;52.124;5.480;2023-03-20T06:26:29;101845.66;;;6.28;82.71
76637;BME280;65532;52.124;5.480;2023-03-20T06:29:01;101846.66;;;6.27;82.89
76637;BME280;65532;52.124;5.480;2023-03-20T06:31:29;101852.69;;;6.29;83.03
76637;BME280;65532;52.124;5.480;2023-03-20T06:33:58;101860.09;;;6.27;82.64
76637;BME280;65532;52.124;5.480;2023-03-20T06:36:24;101862.97;;;6.26;82.87
76637;BME280;65532;52.124;5.480;2023-03-20T06:38:57;101869.84;;;6.28;82.10
76637;BME280;65532;52.124;5.480;2023-03-20T06:47:31;101875.88;;;6.30;82.22
76637;BME280;65532;52.124;5.480;2023-03-20T06:49:57;101874.22;;;6.29;82.73
76637;BME280;65532;52.124;5.480;2023-03-20T06:52:24;101873.03;;;6.32;82.87
76637;BME280;65532;52.124;5.480;2023-03-20T06:55:13;101882.59;;;6.35;82.87
76637;BME280;65532;52.124;5.480;2023-03-20T06:57:40;101889.47;;;6.37;82.79
76637;BME280;65532;52.124;5.480;2023-03-20T07:00:07;101875.84;;;6.39;82.68
76637;BME280;65532;52.124;5.480;2023-03-20T07:02:35;101876.50;;;6.41;82.79
76637;BME280;65532;52.124;5.480;2023-03-20T07:05:03;101876.50;;;6.41;83.23
76637;BME280;65532;52.124;5.480;2023-03-20T07:07:31;101875.47;;;6.42;83.53
76637;BME280;65532;52.124;5.480;2023-03-20T07:09:58;101883.38;;;6.43;83.30
76637;BME280;65532;52.124;5.480;2023-03-20T07:12:24;101889.41;;;6.45;83.65
76637;BME280;65532;52.124;5.480;2023-03-20T07:14:57;101883.19;;;6.45;83.65
76637;BME280;65532;52.124;5.480;2023-03-20T07:17:23;101883.38;;;6.43;84.24
76637;BME280;65532;52.124;5.480;2023-03-20T07:19:50;101882.53;;;6.43;83.63
76637;BME280;65532;52.124;5.480;2023-03-20T07:22:21;101879.00;;;6.42;83.97
76637;BME280;65532;52.124;5.480;2023-03-20T07:24:49;101869.28;;;6.41;83.94
76637;BME280;65532;52.124;5.480;2023-03-20T07:27:19;101878.81;;;6.44;84.35
76637;BME280;65532;52.124;5.480;2023-03-20T07:29:46;101890.25;;;6.46;84.22
76637;BME280;65532;52.124;5.480;2023-03-20T07:32:16;101883.69;;;6.48;84.54
76637;BME280;65532;52.124;5.480;2023-03-20T07:34:47;101882.69;;;6.49;84.35
76637;BME280;65532;52.124;5.480;2023-03-20T07:37:16;101884.34;;;6.50;84.47
76637;BME280;65532;52.124;5.480;2023-03-20T07:39:54;101881.66;;;6.50;84.34
76637;BME280;65532;52.124;5.480;2023-03-20T07:42:27;101882.31;;;6.52;84.50
76637;BME280;65532;52.124;5.480;2023-03-20T07:44:58;101890.19;;;6.54;84.47
76637;BME280;65532;52.124;5.480;2023-03-20T07:47:25;101890.69;;;6.57;84.63
76637;BME280;65532;52.124;5.480;2023-03-20T07:49:51;101891.50;;;6.58;84.55
76637;BME280;65532;52.124;5.480;2023-03-20T07:52:18;101887.44;;;6.62;85.16
76637;BME280;65532;52.124;5.480;2023-03-20T07:54:44;101891.47;;;6.66;85.09
76637;BME280;65532;52.124;5.480;2023-03-20T07:57:12;101887.09;;;6.65;85.79
76637;BME280;65532;52.124;5.480;2023-03-20T07:59:39;101887.94;;;6.66;86.16
76637;BME280;65532;52.124;5.480;2023-03-20T08:02:06;101882.19;;;6.69;86.08
76637;BME280;65532;52.124;5.480;2023-03-20T08:04:32;101881.81;;;6.72;86.43
76637;BME280;65532;52.124;5.480;2023-03-20T08:06:59;101896.13;;;6.72;86.71
76637;BME280;65532;52.124;5.480;2023-03-20T08:09:25;101886.66;;;6.76;87.27
76637;BME280;65532;52.124;5.480;2023-03-20T08:11:52;101880.25;;;6.77;88.06
76637;BME280;65532;52.124;5.480;2023-03-20T08:14:18;101878.91;;;6.81;87.81
76637;BME280;65532;52.124;5.480;2023-03-20T08:16:45;101882.06;;;6.85;88.37
76637;BME280;65532;52.124;5.480;2023-03-20T08:19:11;101885.88;;;6.90;88.06
76637;BME280;65532;52.124;5.480;2023-03-20T08:21:38;101876.44;;;6.95;88.29
76637;BME280;65532;52.124;5.480;2023-03-20T08:24:06;101883.50;;;6.96;88.84
76637;BME280;65532;52.124;5.480;2023-03-20T08:26:33;101881.09;;;7.01;88.89
76637;BME280;65532;52.124;5.480;2023-03-20T08:29:00;101880.53;;;7.05;88.99
76637;BME280;65532;52.124;5.480;2023-03-20T08:31:27;101877.13;;;7.11;89.53
76637;BME280;65532;52.124;5.480;2023-03-20T08:33:54;101867.94;;;7.20;89.55
76637;BME280;65532;52.124;5.480;2023-03-20T08:36:21;101875.81;;;7.22;90.09
76637;BME280;65532;52.124;5.480;2023-03-20T08:38:48;101876.47;;;7.24;90.44
76637;BME280;65532;52.124;5.480;2023-03-20T08:41:16;101873.06;;;7.30;90.19
76637;BME280;65532;52.124;5.480;2023-03-20T08:43:43;101874.09;;;7.29;90.43
76637;BME280;65532;52.124;5.480;2023-03-20T08:46:09;101882.44;;;7.34;90.55
76637;BME280;65532;52.124;5.480;2023-03-20T08:48:36;101875.47;;;7.40;90.46
76637;BME280;65532;52.124;5.480;2023-03-20T08:51:03;101874.75;;;7.46;90.83
76637;BME280;65532;52.124;5.480;2023-03-20T08:53:30;101873.16;;;7.51;90.67
76637;BME280;65532;52.124;5.480;2023-03-20T08:55:56;101875.13;;;7.58;90.67
76637;BME280;65532;52.124;5.480;2023-03-20T08:58:23;101875.78;;;7.60;90.68
76637;BME280;65532;52.124;5.480;2023-03-20T09:00:49;101880.78;;;7.63;90.35
76637;BME280;65532;52.124;5.480;2023-03-20T09:03:18;101871.31;;;7.67;90.37
76637;BME280;65532;52.124;5.480;2023-03-20T09:05:51;101872.59;;;7.71;90.61
76637;BME280;65532;52.124;5.480;2023-03-20T09:08:18;101877.25;;;7.77;90.37
76637;BME280;65532;52.124;5.480;2023-03-20T09:10:46;101877.53;;;7.82;90.22
76637;BME280;65532;52.124;5.480;2023-03-20T09:13:17;101884.41;;;7.85;90.12
76637;BME280;65532;52.124;5.480;2023-03-20T09:15:54;101888.22;;;7.90;90.51
76637;BME280;65532;52.124;5.480;2023-03-20T09:18:21;101896.47;;;7.89;90.27
76637;BME280;65532;52.124;5.480;2023-03-20T09:20:48;101894.63;;;7.89;90.52
76637;BME280;65532;52.124;5.480;2023-03-20T09:23:14;101897.69;;;7.86;90.59
76637;BME280;65532;52.124;5.480;2023-03-20T09:25:41;101895.38;;;7.83;90.74
76637;BME280;65532;52.124;5.480;2023-03-20T09:28:08;101897.69;;;7.86;90.47
76637;BME280;65532;52.124;5.480;2023-03-20T09:30:34;101897.88;;;7.85;90.34
76637;BME280;65532;52.124;5.480;2023-03-20T09:33:02;101895.56;;;7.81;90.55
76637;BME280;65532;52.124;5.480;2023-03-20T09:35:28;101897.34;;;7.89;90.52
76637;BME280;65532;52.124;5.480;2023-03-20T09:37:55;101900.88;;;7.90;90.57
76637;BME280;65532;52.124;5.480;2023-03-20T09:40:28;101898.53;;;7.87;90.34
76637;BME280;65532;52.124;5.480;2023-03-20T09:43:12;101896.66;;;7.87;89.85
76637;BME280;65532;52.124;5.480;2023-03-20T09:48:37;101900.50;;;7.93;90.05
76637;BME280;65532;52.124;5.480;2023-03-20T09:51:14;101900.38;;;7.86;90.04
76637;BME280;65532;52.124;5.480;2023-03-20T09:53:49;101895.53;;;7.96;89.66
76637;BME280;65532;52.124;5.480;2023-03-20T09:56:23;101887.00;;;7.93;89.46
76637;BME280;65532;52.124;5.480;2023-03-20T09:59:01;101888.34;;;8.03;88.92
76637;BME280;65532;52.124;5.480;2023-03-20T10:01:47;101890.03;;;8.04;88.99
76637;BME280;65532;52.124;5.480;2023-03-20T10:04:15;101879.78;;;8.15;88.53
76637;BME280;65532;52.124;5.480;2023-03-20T10:06:42;101884.25;;;8.22;88.66
76637;BME280;65532;52.124;5.480;2023-03-20T10:09:27;101874.94;;;8.25;89.17
76637;BME280;65532;52.124;5.480;2023-03-20T10:18:04;101873.63;;;8.35;89.28
76637;BME280;65532;52.124;5.480;2023-03-20T10:20:42;101872.22;;;8.39;89.13
76637;BME280;65532;52.124;5.480;2023-03-20T10:23:25;101882.63;;;8.43;89.49
76637;BME280;65532;52.124;5.480;2023-03-20T10:26:00;101872.28;;;8.46;89.72
76637;BME280;65532;52.124;5.480;2023-03-20T10:28:39;101880.72;;;8.36;90.32
76637;BME280;65532;52.124;5.480;2023-03-20T10:34:34;101878.34;;;8.33;90.11
76637;BME280;65532;52.124;5.480;2023-03-20T10:37:28;101868.69;;;8.39;90.05
76637;BME280;65532;52.124;5.480;2023-03-20T10:42:43;101877.50;;;8.33;89.66
76637;BME280;65532;52.124;5.480;2023-03-20T10:45:35;101872.13;;;8.33;89.46
76637;BME280;65532;52.124;5.480;2023-03-20T10:48:32;101870.91;;;8.35;89.86
76637;BME280;65532;52.124;5.480;2023-03-20T10:51:00;101867.94;;;8.30;89.92
76637;BME280;65532;52.124;5.480;2023-03-20T10:53:51;101866.22;;;8.23;89.97
76637;BME280;65532;52.124;5.480;2023-03-20T10:56:35;101867.72;;;8.10;90.06
76637;BME280;65532;52.124;5.480;2023-03-20T10:59:14;101863.34;;;8.09;90.13
76637;BME280;65532;52.124;5.480;2023-03-20T11:01:45;101868.09;;;8.07;90.10
76637;BME280;65532;52.124;5.480;2023-03-20T11:04:12;101861.69;;;8.08;89.50
76637;BME280;65532;52.124;5.480;2023-03-20T11:06:46;101866.50;;;8.13;89.60
76637;BME280;65532;52.124;5.480;2023-03-20T11:09:18;101865.84;;;8.11;90.00
76637;BME280;65532;52.124;5.480;2023-03-20T11:11:47;101866.13;;;8.16;89.38
76637;BME280;65532;52.124;5.480;2023-03-20T11:14:20;101855.41;;;8.23;89.38
76637;BME280;65532;52.124;5.480;2023-03-20T11:16:50;101857.91;;;8.24;89.59
76637;BME280;65532;52.124;5.480;2023-03-20T11:19:19;101849.25;;;8.29;89.29
76637;BME280;65532;52.124;5.480;2023-03-20T11:21:49;101852.13;;;8.42;89.32
76637;BME280;65532;52.124;5.480;2023-03-20T11:24:55;101849.81;;;8.39;89.08
76637;BME280;65532;52.124;5.480;2023-03-20T11:27:34;101853.72;;;8.36;89.39
76637;BME280;65532;52.124;5.480;2023-03-20T11:30:04;101860.69;;;8.31;88.91
76637;BME280;65532;52.124;5.480;2023-03-20T11:32:40;101849.63;;;8.26;88.93
76637;BME280;65532;52.124;5.480;2023-03-20T11:37:51;101847.31;;;8.23;88.29
76637;BME280;65532;52.124;5.480;2023-03-20T11:40:24;101833.84;;;8.23;87.65
76637;BME280;65532;52.124;5.480;2023-03-20T11:42:53;101823.94;;;8.30;86.93
76637;BME280;65532;52.124;5.480;2023-03-20T11:45:21;101821.88;;;8.32;87.21
76637;BME280;65532;52.124;5.480;2023-03-20T11:47:54;101824.56;;;8.32;86.79
76637;BME280;65532;52.124;5.480;2023-03-20T11:50:35;101819.50;;;8.37;86.50
76637;BME280;65532;52.124;5.480;2023-03-20T11:53:19;101823.31;;;8.28;86.94
76637;BME280;65532;52.124;5.480;2023-03-20T11:56:02;101821.44;;;8.28;86.46
76637;BME280;65532;52.124;5.480;2023-03-20T11:58:30;101818.16;;;8.33;86.27
76637;BME280;65532;52.124;5.480;2023-03-20T12:00:58;101820.69;;;8.34;85.67
76637;BME280;65532;52.124;5.480;2023-03-20T12:03:39;101813.06;;;8.38;85.84
76637;BME280;65532;52.124;5.480;2023-03-20T12:06:19;101811.66;;;8.42;86.16
76637;BME280;65532;52.124;5.480;2023-03-20T12:08:59;101809.38;;;8.46;85.43
76637;BME280;65532;52.124;5.480;2023-03-20T12:11:46;101808.75;;;8.44;85.97
76637;BME280;65532;52.124;5.480;2023-03-20T12:14:22;101812.53;;;8.49;85.84
76637;BME280;65532;52.124;5.480;2023-03-20T12:16:56;101810.09;;;8.54;85.43
76637;BME280;65532;52.124;5.480;2023-03-20T12:19:29;101815.75;;;8.59;84.93
76637;BME280;65532;52.124;5.480;2023-03-20T12:22:13;101811.81;;;8.62;85.09
76637;BME280;65532;52.124;5.480;2023-03-20T12:24:52;101807.22;;;8.56;86.17
76637;BME280;65532;52.124;5.480;2023-03-20T12:27:26;101807.41;;;8.54;86.17
76637;BME280;65532;52.124;5.480;2023-03-20T12:30:03;101804.72;;;8.54;87.04
76637;BME280;65532;52.124;5.480;2023-03-20T12:35:37;101810.22;;;8.46;86.04
76637;BME280;65532;52.124;5.480;2023-03-20T12:38:20;101810.88;;;8.48;85.39
76637;BME280;65532;52.124;5.480;2023-03-20T12:40:50;101804.22;;;8.51;85.33
76637;BME280;65532;52.124;5.480;2023-03-20T12:43:26;101797.38;;;8.48;84.14
76637;BME280;65532;52.124;5.480;2023-03-20T12:49:05;101804.59;;;8.41;82.45
76637;BME280;65532;52.124;5.480;2023-03-20T12:51:52;101796.50;;;8.41;80.84
76637;BME280;65532;52.124;5.480;2023-03-20T12:55:06;101790.91;;;8.43;79.23
76637;BME280;65532;52.124;5.480;2023-03-20T12:58:00;101792.97;;;8.40;79.28
76637;BME280;65532;52.124;5.480;2023-03-20T13:06:06;101782.47;;;8.52;76.57
76637;BME280;65532;52.124;5.480;2023-03-20T13:08:50;101784.47;;;8.44;76.10
76637;BME280;65532;52.124;5.480;2023-03-20T13:11:41;101777.41;;;8.43;74.51
76637;BME280;65532;52.124;5.480;2023-03-20T13:16:55;101770.97;;;8.44;71.07
76637;BME280;65532;52.124;5.480;2023-03-20T13:19:37;101774.47;;;8.37;71.71
76637;BME280;65532;52.124;5.480;2023-03-20T13:22:14;101777.69;;;8.33;70.69
76637;BME280;65532;52.124;5.480;2023-03-20T13:25:00;101767.56;;;8.35;69.51
76637;BME280;65532;52.124;5.480;2023-03-20T13:28:13;101769.97;;;8.30;71.93
76637;BME280;65532;52.124;5.480;2023-03-20T13:30:33;101766.66;;;8.28;69.56
76637;BME280;65532;52.124;5.480;2023-03-20T13:33:16;101774.34;;;8.31;67.29
76637;BME280;65532;52.124;5.480;2023-03-20T13:38:42;101769.59;;;8.33;68.04
76637;BME280;65532;52.124;5.480;2023-03-20T13:41:12;101766.72;;;8.34;67.04
76637;BME280;65532;52.124;5.480;2023-03-20T13:43:49;101758.06;;;8.39;65.14
76637;BME280;65532;52.124;5.480;2023-03-20T13:46:30;101748.75;;;8.42;64.92
76637;BME280;65532;52.124;5.480;2023-03-20T13:49:05;101752.28;;;8.42;64.25
76637;BME280;65532;52.124;5.480;2023-03-20T13:51:38;101751.44;;;8.42;63.73
76637;BME280;65532;52.124;5.480;2023-03-20T13:54:49;101750.63;;;8.41;63.55
76637;BME280;65532;52.124;5.480;2023-03-20T13:57:39;101752.28;;;8.42;64.94
76637;BME280;65532;52.124;5.480;2023-03-20T14:00:34;101751.66;;;8.40;64.82
76637;BME280;65532;52.124;5.480;2023-03-20T14:03:53;101746.88;;;8.42;64.54
76637;BME280;65532;52.124;5.480;2023-03-20T14:06:15;101753.94;;;8.43;64.05
76637;BME280;65532;52.124;5.480;2023-03-20T14:08:52;101741.50;;;8.42;64.04
76637;BME280;65532;52.124;5.480;2023-03-20T14:13:56;101745.22;;;8.41;64.65
76637;BME280;65532;52.124;5.480;2023-03-20T14:16:26;101753.03;;;8.36;64.44
76637;BME280;65532;52.124;5.480;2023-03-20T14:19:16;101738.56;;;8.37;62.65
76637;BME280;65532;52.124;5.480;2023-03-20T14:21:45;101741.50;;;8.42;62.21
76637;BME280;65532;52.124;5.480;2023-03-20T14:24:14;101741.28;;;8.44;61.30
76637;BME280;65532;52.124;5.480;2023-03-20T14:26:47;101742.75;;;8.46;60.63
76637;BME280;65532;52.124;5.480;2023-03-20T14:31:41;101741.88;;;8.39;63.24
76637;BME280;65532;52.124;5.480;2023-03-20T14:37:01;101747.16;;;8.32;64.75
76637;BME280;65532;52.124;5.480;2023-03-20T14:39:47;101746.34;;;8.32;64.24
76637;BME280;65532;52.124;5.480;2023-03-20T14:51:03;101740.94;;;8.32;61.13
76637;BME280;65532;52.124;5.480;2023-03-20T14:53:31;101739.06;;;8.32;59.59
76637;BME280;65532;52.124;5.480;2023-03-20T14:56:06;101741.34;;;8.29;58.57
76637;BME280;65532;52.124;5.480;2023-03-20T14:58:54;101739.66;;;8.28;56.38
76637;BME280;65532;52.124;5.480;2023-03-20T15:04:00;101743.41;;;8.27;51.33
76637;BME280;65532;52.124;5.480;2023-03-20T15:06:30;101740.91;;;8.25;50.58
76637;BME280;65532;52.124;5.480;2023-03-20T15:09:04;101735.06;;;8.22;49.57
76637;BME280;65532;52.124;5.480;2023-03-20T15:11:32;101749.09;;;8.17;48.00